createdAt,value
2023-03-19T00:01:04.816Z,61.78
2023-03-19T00:03:42.772Z,62.66
2023-03-19T00:06:10.927Z,63.30
2023-03-19T00:08:39.129Z,63.31
2023-03-19T00:11:09.417Z,63.63
2023-03-19T00:13:37.525Z,64.04
2023-03-19T00:16:07.253Z,64.32
2023-03-19T00:18:35.497Z,64.46
2023-03-19T00:21:03.939Z,64.59
2023-03-19T00:23:32.038Z,64.81
2023-03-19T00:26:00.118Z,65.13
2023-03-19T00:28:28.510Z,65.33
2023-03-19T00:30:57.402Z,65.67
2023-03-19T00:33:26.645Z,65.89
2023-03-19T00:35:55.733Z,66.34
2023-03-19T00:38:24.185Z,66.55
2023-03-19T00:40:52.311Z,66.57
2023-03-19T00:43:20.464Z,66.71
2023-03-19T00:45:48.648Z,66.96
2023-03-19T00:48:17.488Z,67.17
2023-03-19T00:50:45.790Z,67.17
2023-03-19T00:53:14.101Z,67.29
2023-03-19T00:55:42.372Z,67.80
2023-03-19T00:58:10.966Z,67.86
2023-03-19T01:00:40.073Z,68.05
2023-03-19T01:03:08.194Z,68.21
2023-03-19T01:08:04.729Z,69.13
2023-03-19T01:10:34.872Z,69.14
2023-03-19T01:13:03.496Z,69.41
2023-03-19T01:15:38.859Z,69.47
2023-03-19T01:18:07.876Z,69.71
2023-03-19T01:20:38.050Z,69.86
2023-03-19T01:23:07.167Z,70.00
2023-03-19T01:25:35.729Z,70.41
2023-03-19T01:28:06.062Z,70.87
2023-03-19T01:30:34.416Z,71.28
2023-03-19T01:33:22.555Z,71.63
2023-03-19T01:36:03.212Z,71.92
2023-03-19T01:38:38.223Z,72.44
2023-03-19T01:41:10.699Z,72.81
2023-03-19T01:43:39.144Z,73.18
2023-03-19T01:46:37.750Z,73.63
2023-03-19T01:49:31.889Z,74.10
2023-03-19T01:52:16.917Z,74.38
2023-03-19T01:55:09.452Z,74.73
2023-03-19T01:57:51.258Z,75.10
2023-03-19T02:00:51.432Z,75.22
2023-03-19T02:03:19.623Z,75.40
2023-03-19T02:06:12.325Z,75.42
2023-03-19T02:08:41.609Z,75.61
2023-03-19T02:11:10.621Z,75.61
2023-03-19T02:13:39.019Z,75.88
2023-03-19T02:16:07.659Z,76.07
2023-03-19T02:18:36.778Z,76.38
2023-03-19T02:21:12.136Z,76.55
2023-03-19T02:23:55.621Z,76.77
2023-03-19T02:26:36.972Z,77.06
2023-03-19T02:29:06.184Z,77.12
2023-03-19T02:31:36.538Z,77.59
2023-03-19T02:34:26.761Z,77.70
2023-03-19T02:37:00.090Z,77.95
2023-03-19T02:39:44.198Z,78.27
2023-03-19T02:42:14.833Z,78.41
2023-03-19T02:44:43.437Z,78.45
2023-03-19T02:47:12.151Z,78.56
2023-03-19T02:49:40.389Z,78.84
2023-03-19T02:52:08.977Z,78.71
2023-03-19T02:54:37.084Z,78.70
2023-03-19T02:57:05.598Z,78.93
2023-03-19T02:59:34.098Z,78.88
2023-03-19T03:02:02.648Z,78.79
2023-03-19T03:04:32.105Z,79.01
2023-03-19T03:07:00.978Z,79.22
2023-03-19T03:09:29.183Z,79.15
2023-03-19T03:11:57.315Z,79.06
2023-03-19T03:14:25.537Z,79.10
2023-03-19T03:16:53.644Z,79.39
2023-03-19T03:19:21.739Z,79.34
2023-03-19T03:21:49.865Z,79.46
2023-03-19T03:24:17.918Z,79.54
2023-03-19T03:26:46.322Z,79.69
2023-03-19T03:29:16.747Z,79.91
2023-03-19T03:31:44.899Z,79.94
2023-03-19T03:34:13.067Z,79.91
2023-03-19T03:36:41.193Z,79.41
2023-03-19T03:39:09.223Z,79.41
2023-03-19T03:41:37.615Z,79.33
2023-03-19T03:44:06.053Z,78.96
2023-03-19T03:46:35.412Z,78.86
2023-03-19T03:49:03.522Z,78.94
2023-03-19T03:51:32.943Z,78.54
2023-03-19T03:54:01.429Z,78.56
2023-03-19T03:56:29.690Z,78.66
2023-03-19T03:58:58.018Z,78.45
2023-03-19T04:01:26.067Z,78.66
2023-03-19T04:03:54.807Z,78.57
2023-03-19T04:06:25.111Z,78.47
2023-03-19T04:09:17.239Z,78.73
2023-03-19T04:11:45.640Z,78.98
2023-03-19T04:14:13.913Z,79.24
2023-03-19T04:16:44.166Z,79.52
2023-03-19T04:19:12.398Z,79.68
2023-03-19T04:21:40.496Z,79.95
2023-03-19T04:24:10.582Z,80.69
2023-03-19T04:26:39.048Z,80.99
2023-03-19T04:29:08.812Z,80.92
2023-03-19T04:31:37.070Z,80.78
2023-03-19T04:34:05.907Z,80.95
2023-03-19T04:36:34.078Z,80.98
2023-03-19T04:39:02.228Z,80.84
2023-03-19T04:41:30.550Z,81.08
2023-03-19T04:44:06.370Z,81.01
2023-03-19T04:46:35.467Z,80.71
2023-03-19T04:49:03.759Z,80.55
2023-03-19T04:51:32.559Z,80.81
2023-03-19T04:54:00.985Z,81.10
2023-03-19T04:56:29.273Z,81.06
2023-03-19T04:58:57.419Z,80.79
2023-03-19T05:01:25.608Z,80.79
2023-03-19T05:04:02.406Z,80.76
2023-03-19T05:06:32.242Z,80.79
2023-03-19T05:09:00.863Z,80.53
2023-03-19T05:11:28.892Z,80.73
2023-03-19T05:14:16.230Z,80.76
2023-03-19T05:17:04.859Z,80.63
2023-03-19T05:19:43.969Z,80.58
2023-03-19T05:22:12.088Z,81.01
2023-03-19T05:24:40.381Z,81.42
2023-03-19T05:27:09.262Z,81.58
2023-03-19T05:30:13.053Z,82.07
2023-03-19T05:33:00.118Z,81.97
2023-03-19T05:35:41.029Z,81.77
2023-03-19T05:38:29.396Z,81.64
2023-03-19T05:41:05.161Z,82.11
2023-03-19T05:44:05.852Z,82.68
2023-03-19T05:46:57.355Z,82.73
2023-03-19T05:49:27.690Z,82.28
2023-03-19T05:51:55.824Z,82.50
2023-03-19T05:54:24.812Z,81.88
2023-03-19T05:57:05.198Z,81.57
2023-03-19T05:59:40.230Z,81.17
2023-03-19T06:02:20.892Z,81.05
2023-03-19T06:04:49.524Z,80.81
2023-03-19T06:07:18.895Z,80.76
2023-03-19T06:09:47.129Z,80.56
2023-03-19T06:12:16.477Z,80.50
2023-03-19T06:14:44.773Z,79.96
2023-03-19T06:17:45.008Z,79.80
2023-03-19T06:20:14.042Z,79.93
2023-03-19T06:22:43.705Z,79.53
2023-03-19T06:25:12.151Z,79.38
2023-03-19T06:27:40.355Z,79.36
2023-03-19T06:30:19.350Z,78.78
2023-03-19T06:32:47.649Z,78.32
2023-03-19T06:35:15.893Z,78.04
2023-03-19T06:37:45.328Z,77.56
2023-03-19T06:40:13.917Z,76.95
2023-03-19T06:42:45.918Z,75.97
2023-03-19T06:45:16.600Z,75.35
2023-03-19T06:47:45.504Z,74.82
2023-03-19T06:50:18.010Z,74.00
2023-03-19T06:52:46.714Z,73.03
2023-03-19T06:55:14.982Z,72.08
2023-03-19T06:57:43.267Z,71.25
2023-03-19T07:00:11.974Z,70.55
2023-03-19T07:02:40.318Z,69.76
2023-03-19T07:05:08.736Z,69.04
2023-03-19T07:07:37.050Z,68.56
2023-03-19T07:10:06.638Z,67.81
2023-03-19T07:12:34.824Z,67.07
2023-03-19T07:15:04.817Z,66.59
2023-03-19T07:17:32.884Z,66.02
2023-03-19T07:20:01.016Z,65.46
2023-03-19T07:22:29.135Z,65.01
2023-03-19T07:24:57.178Z,64.50
2023-03-19T07:27:25.400Z,63.73
2023-03-19T07:29:55.613Z,63.16
2023-03-19T07:32:23.671Z,62.78
2023-03-19T07:34:51.786Z,62.54
2023-03-19T07:37:22.390Z,61.88
2023-03-19T07:39:50.882Z,61.39
2023-03-19T07:42:19.075Z,60.88
2023-03-19T07:44:47.164Z,60.32
2023-03-19T07:47:27.992Z,59.81
2023-03-19T07:49:57.898Z,58.63
2023-03-19T07:52:27.075Z,57.76
2023-03-19T07:54:55.756Z,57.43
2023-03-19T07:57:25.476Z,57.45
2023-03-19T07:59:54.001Z,57.09
2023-03-19T08:02:23.556Z,56.77
2023-03-19T08:04:52.181Z,56.38
2023-03-19T08:07:20.677Z,55.96
2023-03-19T08:09:49.247Z,55.40
2023-03-19T08:12:17.443Z,55.02
2023-03-19T08:14:45.529Z,54.32
2023-03-19T08:17:13.663Z,53.57
2023-03-19T08:19:41.847Z,53.11
2023-03-19T08:22:10.778Z,52.60
2023-03-19T08:24:38.923Z,52.22
2023-03-19T08:27:08.124Z,51.67
2023-03-19T08:29:36.702Z,51.11
2023-03-19T08:32:05.024Z,51.09
2023-03-19T08:34:33.605Z,50.50
2023-03-19T08:37:02.331Z,50.65
2023-03-19T08:39:30.367Z,50.68
2023-03-19T08:41:58.509Z,50.22
2023-03-19T08:44:26.696Z,49.33
2023-03-19T08:46:54.900Z,48.78
2023-03-19T08:49:23.051Z,48.05
2023-03-19T08:51:51.427Z,47.80
2023-03-19T08:54:22.174Z,47.85
2023-03-19T08:56:51.360Z,47.19
2023-03-19T08:59:20.105Z,47.35
2023-03-19T09:01:52.976Z,46.73
2023-03-19T09:04:22.232Z,45.62
2023-03-19T09:06:53.414Z,45.06
2023-03-19T09:09:24.176Z,45.57
2023-03-19T09:11:52.214Z,44.28
2023-03-19T09:14:20.709Z,44.93
2023-03-19T09:16:49.257Z,43.17
2023-03-19T09:19:17.516Z,42.28
2023-03-19T09:21:46.412Z,40.44
2023-03-19T09:24:15.497Z,38.55
2023-03-19T09:26:43.504Z,39.58
2023-03-19T09:29:12.153Z,38.30
2023-03-19T09:31:40.336Z,37.60
2023-03-19T09:34:08.949Z,36.03
2023-03-19T09:36:37.961Z,37.24
2023-03-19T09:39:07.419Z,36.75
2023-03-19T09:41:49.707Z,37.78
2023-03-19T09:44:39.598Z,37.95
2023-03-19T09:47:28.932Z,37.38
2023-03-19T09:50:13.471Z,36.64
2023-03-19T09:52:56.603Z,36.54
2023-03-19T09:55:24.984Z,36.81
2023-03-19T09:57:55.577Z,37.14
2023-03-19T10:00:32.495Z,37.62
2023-03-19T10:03:12.282Z,36.50
2023-03-19T10:06:17.327Z,37.39
2023-03-19T10:08:51.933Z,35.44
2023-03-19T10:11:45.915Z,35.39
2023-03-19T10:14:35.630Z,35.08
2023-03-19T10:17:07.257Z,35.95
2023-03-19T10:19:43.175Z,35.78
2023-03-19T10:22:19.065Z,35.62
2023-03-19T10:24:49.758Z,35.24
2023-03-19T10:27:21.563Z,34.41
2023-03-19T10:29:49.758Z,34.19
2023-03-19T10:32:38.295Z,34.11
2023-03-19T10:35:16.956Z,34.80
2023-03-19T10:37:45.090Z,34.79
2023-03-19T10:40:45.361Z,33.78
2023-03-19T10:43:18.825Z,35.17
2023-03-19T10:45:49.163Z,35.35
2023-03-19T10:48:19.236Z,34.03
2023-03-19T10:51:00.251Z,32.95
2023-03-19T10:53:38.767Z,33.82
2023-03-19T10:56:20.773Z,33.82
2023-03-19T10:59:04.125Z,33.05
2023-03-19T11:01:39.169Z,33.34
2023-03-19T11:04:18.799Z,34.04
2023-03-19T11:06:52.117Z,34.69
2023-03-19T11:09:40.636Z,35.03
2023-03-19T11:12:43.204Z,34.13
2023-03-19T11:15:28.971Z,35.06
2023-03-19T11:17:59.557Z,34.84
2023-03-19T11:20:37.198Z,33.81
2023-03-19T11:23:17.135Z,33.23
2023-03-19T11:25:53.634Z,33.50
2023-03-19T11:28:26.442Z,34.07
2023-03-19T11:31:19.815Z,33.60
2023-03-19T11:33:54.453Z,31.52
2023-03-19T11:36:28.451Z,31.11
2023-03-19T11:39:18.778Z,32.00
2023-03-19T11:42:22.411Z,31.61
2023-03-19T11:45:29.014Z,32.01
2023-03-19T11:48:06.099Z,32.99
2023-03-19T11:51:01.434Z,31.10
2023-03-19T11:54:09.807Z,30.69
2023-03-19T11:56:50.463Z,31.45
2023-03-19T11:59:49.748Z,31.64
2023-03-19T12:02:34.847Z,31.74
2023-03-19T12:05:15.584Z,32.21
2023-03-19T12:07:48.902Z,31.25
2023-03-19T12:10:29.425Z,31.76
2023-03-19T12:13:24.867Z,31.53
2023-03-19T12:16:09.733Z,32.22
2023-03-19T12:18:54.329Z,32.92
2023-03-19T12:21:35.200Z,32.85
2023-03-19T12:24:31.886Z,31.31
2023-03-19T12:27:30.750Z,31.20
2023-03-19T12:30:12.269Z,30.49
2023-03-19T12:33:18.389Z,30.34
2023-03-19T12:35:50.447Z,30.71
2023-03-19T12:38:28.031Z,31.98
2023-03-19T12:41:12.699Z,32.08
2023-03-19T12:44:04.231Z,32.76
2023-03-19T12:46:44.264Z,31.37
2023-03-19T12:49:18.796Z,30.08
2023-03-19T12:51:54.171Z,29.65
2023-03-19T12:54:29.840Z,29.03
2023-03-19T12:57:07.664Z,29.45
2023-03-19T13:00:01.622Z,29.60
2023-03-19T13:02:48.858Z,29.09
2023-03-19T13:05:32.507Z,29.52
2023-03-19T13:08:27.752Z,29.82
2023-03-19T13:10:59.691Z,30.79
2023-03-19T13:13:35.003Z,30.32
2023-03-19T13:16:12.146Z,28.77
2023-03-19T13:18:59.098Z,30.03
2023-03-19T13:21:31.523Z,29.27
2023-03-19T13:24:28.520Z,29.29
2023-03-19T13:27:01.333Z,29.83
2023-03-19T13:29:31.928Z,29.85
2023-03-19T13:32:08.369Z,29.09
2023-03-19T13:34:38.481Z,29.08
2023-03-19T13:37:15.853Z,28.91
2023-03-19T13:39:46.385Z,28.53
2023-03-19T13:42:20.354Z,27.74
2023-03-19T13:45:03.599Z,27.43
2023-03-19T13:47:32.850Z,27.73
2023-03-19T13:50:16.052Z,28.25
2023-03-19T13:52:44.979Z,29.06
2023-03-19T13:55:28.380Z,28.98
2023-03-19T13:58:12.370Z,29.47
2023-03-19T14:00:46.900Z,28.57
2023-03-19T14:03:23.040Z,28.46
2023-03-19T14:05:54.866Z,28.89
2023-03-19T14:08:27.605Z,29.88
2023-03-19T14:10:59.553Z,29.90
2023-03-19T14:13:32.473Z,29.58
2023-03-19T14:16:08.260Z,29.83
2023-03-19T14:18:41.188Z,30.22
2023-03-19T14:21:17.004Z,29.81
2023-03-19T14:23:57.697Z,30.15
2023-03-19T14:26:29.491Z,29.84
2023-03-19T14:29:01.987Z,30.43
2023-03-19T14:31:39.018Z,30.98
2023-03-19T14:34:42.352Z,31.44
2023-03-19T14:37:39.571Z,32.69
2023-03-19T14:40:21.387Z,33.16
2023-03-19T14:43:20.413Z,33.88
2023-03-19T14:45:57.758Z,34.37
2023-03-19T14:48:54.054Z,33.90
2023-03-19T14:51:22.089Z,34.32
2023-03-19T14:53:59.070Z,35.20
2023-03-19T14:56:32.942Z,34.78
2023-03-19T14:59:04.244Z,34.42
2023-03-19T15:01:38.606Z,33.78
2023-03-19T15:04:11.074Z,33.75
2023-03-19T15:06:46.684Z,33.70
2023-03-19T15:09:18.214Z,34.33
2023-03-19T15:11:49.098Z,34.76
2023-03-19T15:14:57.840Z,35.13
2023-03-19T15:17:28.752Z,35.57
2023-03-19T15:20:00.955Z,35.30
2023-03-19T15:22:28.944Z,35.99
2023-03-19T15:25:12.486Z,35.75
2023-03-19T15:27:42.360Z,35.22
2023-03-19T15:30:22.315Z,36.36
2023-03-19T15:33:04.344Z,36.23
2023-03-19T15:35:36.783Z,36.39
2023-03-19T15:38:10.748Z,36.40
2023-03-19T15:40:41.931Z,36.77
2023-03-19T15:43:12.741Z,36.46
2023-03-19T15:45:46.098Z,36.86
2023-03-19T15:48:33.065Z,36.59
2023-03-19T15:51:04.268Z,36.67
2023-03-19T15:53:34.397Z,36.47
2023-03-19T15:56:04.562Z,36.81
2023-03-19T15:58:39.712Z,36.95
2023-03-19T16:01:10.006Z,37.19
2023-03-19T16:03:44.290Z,37.30
2023-03-19T16:06:33.139Z,37.57
2023-03-19T16:09:19.336Z,37.43
2023-03-19T16:11:47.609Z,37.53
2023-03-19T16:14:17.193Z,38.12
2023-03-19T16:16:47.118Z,38.97
2023-03-19T16:19:50.814Z,40.04
2023-03-19T16:22:31.428Z,40.74
2023-03-19T16:25:02.046Z,40.76
2023-03-19T16:27:41.093Z,40.39
2023-03-19T16:30:25.323Z,40.74
2023-03-19T16:33:01.793Z,40.84
2023-03-19T16:35:33.484Z,41.74
2023-03-19T16:38:13.219Z,42.20
2023-03-19T16:40:47.836Z,42.61
2023-03-19T16:43:34.512Z,43.07
2023-03-19T16:46:12.373Z,43.79
2023-03-19T16:48:40.714Z,44.08
2023-03-19T16:51:18.356Z,44.44
2023-03-19T16:53:48.335Z,45.02
2023-03-19T16:56:18.877Z,45.53
2023-03-19T16:58:48.390Z,45.83
2023-03-19T17:01:20.237Z,46.39
2023-03-19T17:03:49.863Z,47.05
2023-03-19T17:06:20.686Z,47.55
2023-03-19T17:08:48.919Z,48.06
2023-03-19T17:11:43.052Z,48.45
2023-03-19T17:14:19.914Z,48.99
2023-03-19T17:16:50.731Z,49.46
2023-03-19T17:19:22.210Z,49.92
2023-03-19T17:21:53.582Z,50.23
2023-03-19T17:24:32.426Z,50.39
2023-03-19T17:27:04.398Z,51.29
2023-03-19T17:29:33.277Z,51.95
2023-03-19T17:32:02.552Z,52.87
2023-03-19T17:34:32.069Z,53.68
2023-03-19T17:37:02.285Z,54.15
2023-03-19T17:39:31.439Z,54.84
2023-03-19T17:42:00.006Z,55.04
2023-03-19T17:44:28.398Z,55.19
2023-03-19T17:46:57.073Z,55.50
2023-03-19T17:49:31.802Z,55.91
2023-03-19T17:52:00.297Z,56.58
2023-03-19T17:54:28.651Z,56.74
2023-03-19T17:56:56.919Z,57.08
2023-03-19T17:59:25.312Z,57.65
2023-03-19T18:01:53.404Z,58.09
2023-03-19T18:04:25.853Z,58.74
2023-03-19T18:06:55.978Z,59.28
2023-03-19T18:09:28.546Z,60.07
2023-03-19T18:11:56.789Z,60.75
2023-03-19T18:14:25.075Z,61.21
2023-03-19T18:16:53.421Z,61.56
2023-03-19T18:19:30.708Z,61.91
2023-03-19T18:21:59.285Z,62.45
2023-03-19T18:24:27.767Z,62.90
2023-03-19T18:26:55.909Z,63.38
2023-03-19T18:29:24.049Z,63.94
2023-03-19T18:31:52.339Z,64.44
2023-03-19T18:34:20.594Z,64.98
2023-03-19T18:36:48.816Z,65.30
2023-03-19T18:39:17.203Z,65.69
2023-03-19T18:41:45.334Z,66.01
2023-03-19T18:44:13.897Z,66.49
2023-03-19T18:46:42.301Z,66.88
2023-03-19T18:49:24.296Z,67.32
2023-03-19T18:52:04.101Z,67.77
2023-03-19T18:54:32.531Z,68.17
2023-03-19T18:57:02.060Z,68.45
2023-03-19T18:59:32.865Z,68.68
2023-03-19T19:02:25.436Z,69.14
2023-03-19T19:04:53.551Z,69.55
2023-03-19T19:07:21.756Z,69.87
2023-03-19T19:09:50.093Z,69.96
2023-03-19T19:12:19.045Z,70.07
2023-03-19T19:14:47.566Z,70.20
2023-03-19T19:17:24.075Z,70.32
2023-03-19T19:19:52.348Z,70.55
2023-03-19T19:22:20.590Z,70.65
2023-03-19T19:24:48.982Z,70.72
2023-03-19T19:27:20.148Z,70.80
2023-03-19T19:29:49.579Z,71.24
2023-03-19T19:32:26.466Z,71.32
2023-03-19T19:34:55.371Z,71.36
2023-03-19T19:37:23.869Z,71.52
2023-03-19T19:39:52.001Z,71.66
2023-03-19T19:42:22.143Z,71.85
2023-03-19T19:44:57.716Z,72.02
2023-03-19T19:47:27.806Z,72.16
2023-03-19T19:49:56.636Z,72.36
2023-03-19T19:52:24.717Z,72.51
2023-03-19T19:54:52.868Z,72.67
2023-03-19T19:57:24.720Z,72.89
2023-03-19T19:59:54.854Z,73.09
2023-03-19T20:02:31.181Z,73.22
2023-03-19T20:04:59.303Z,73.24
2023-03-19T20:07:27.629Z,73.31
2023-03-19T20:09:55.760Z,73.47
2023-03-19T20:12:28.047Z,73.51
2023-03-19T20:14:57.694Z,73.47
2023-03-19T20:17:27.360Z,73.68
2023-03-19T20:19:55.760Z,73.79
2023-03-19T20:22:23.896Z,73.90
2023-03-19T20:24:51.921Z,73.91
2023-03-19T20:27:30.505Z,73.97
2023-03-19T20:29:59.222Z,73.94
2023-03-19T20:32:33.051Z,73.91
2023-03-19T20:35:02.176Z,73.90
2023-03-19T20:37:30.769Z,73.96
2023-03-19T20:39:58.986Z,73.87
2023-03-19T20:42:30.686Z,73.88
2023-03-19T20:44:59.715Z,73.93
2023-03-19T20:47:29.048Z,74.07
2023-03-19T20:49:57.089Z,74.29
2023-03-19T20:52:25.979Z,74.37
2023-03-19T20:54:54.304Z,74.66
2023-03-19T20:57:31.021Z,74.90
2023-03-19T21:00:02.638Z,75.17
2023-03-19T21:02:31.186Z,75.43
2023-03-19T21:04:59.588Z,75.55
2023-03-19T21:07:33.653Z,75.82
2023-03-19T21:10:19.903Z,75.86
2023-03-19T21:12:48.072Z,76.10
2023-03-19T21:15:16.881Z,76.18
2023-03-19T21:17:45.069Z,76.36
2023-03-19T21:20:26.482Z,76.43
2023-03-19T21:23:01.866Z,76.59
2023-03-19T21:25:31.855Z,76.59
2023-03-19T21:28:04.446Z,76.77
2023-03-19T21:30:37.953Z,76.75
2023-03-19T21:33:06.701Z,76.79
2023-03-19T21:35:35.151Z,76.87
2023-03-19T21:38:03.476Z,76.80
2023-03-19T21:40:31.643Z,76.86
2023-03-19T21:43:02.898Z,76.73
2023-03-19T21:45:35.458Z,76.81
2023-03-19T21:48:31.223Z,76.96
2023-03-19T21:51:04.181Z,77.02
2023-03-19T21:53:32.844Z,77.09
2023-03-19T21:56:01.535Z,77.06
2023-03-19T21:58:35.379Z,77.09
2023-03-19T22:01:04.803Z,77.08
2023-03-19T22:03:34.338Z,77.00
2023-03-19T22:06:02.371Z,77.06
2023-03-19T22:08:30.632Z,77.14
2023-03-19T22:11:02.780Z,77.23
2023-03-19T22:13:34.264Z,77.61
2023-03-19T22:16:02.423Z,77.87
2023-03-19T22:18:30.491Z,78.22
2023-03-19T22:20:58.553Z,78.60
2023-03-19T22:23:26.676Z,78.72
2023-03-19T22:25:54.984Z,78.64
2023-03-19T22:28:34.013Z,78.87
2023-03-19T22:31:03.324Z,79.24
2023-03-19T22:33:31.656Z,79.23
2023-03-19T22:35:59.794Z,79.23
2023-03-19T22:38:27.979Z,79.52
2023-03-19T22:40:56.643Z,79.57
2023-03-19T22:43:33.708Z,79.65
2023-03-19T22:46:09.258Z,79.82
2023-03-19T22:48:38.665Z,80.06
2023-03-19T22:51:07.040Z,80.43
2023-03-19T22:53:36.976Z,80.74
2023-03-19T22:56:05.651Z,81.21
2023-03-19T22:58:33.758Z,81.36
2023-03-19T23:01:01.883Z,81.25
2023-03-19T23:03:30.946Z,81.15
2023-03-19T23:06:08.979Z,81.20
2023-03-19T23:08:38.606Z,81.18
2023-03-19T23:11:10.153Z,81.22
2023-03-19T23:13:38.252Z,81.22
2023-03-19T23:16:20.983Z,81.41
2023-03-19T23:18:49.841Z,81.46
2023-03-19T23:21:19.596Z,81.66
2023-03-19T23:23:47.697Z,81.71
2023-03-19T23:26:31.564Z,81.82
2023-03-19T23:29:05.803Z,82.26
2023-03-19T23:31:34.497Z,82.25
2023-03-19T23:34:02.904Z,82.38
2023-03-19T23:36:31.451Z,82.46
2023-03-19T23:38:59.537Z,82.54
2023-03-19T23:41:30.001Z,82.67
2023-03-19T23:44:02.118Z,82.61
2023-03-19T23:46:33.799Z,82.70
2023-03-19T23:49:01.922Z,82.61
2023-03-19T23:51:30.085Z,82.56
2023-03-19T23:53:58.165Z,82.80
2023-03-19T23:56:27.567Z,82.74
